Time;durP1;ratioP1;P1;durP2;ratioP2;P2;SDS_P1;SDS_P2;PMS_P1;PMS_P2;Temp;Humidity;BMP_temperature;BMP_pressure;BME280_temperature;BME280_humidity;BME280_pressure;Samples;Min_cycle;Max_cycle;Signal;HPM_P1;HPM_P2
2021/05/14 00:01:38;;;;;;;4.60;1.53;;;6.30;99.90;;;;;;20683225;28;20109;-77
2021/05/14 00:11:39;;;;;;;2.17;1.57;;;6.20;99.90;;;;;;20685175;28;20514;-76
2021/05/14 00:21:40;;;;;;;4.72;1.40;;;5.90;99.90;;;;;;20684734;28;20038;-75
2021/05/14 00:31:41;;;;;;;2.53;1.27;;;6.20;99.90;;;;;;20685908;28;20599;-75
2021/05/14 00:41:42;;;;;;;3.60;1.50;;;6.50;99.90;;;;;;20688095;28;20077;-75
2021/05/14 00:51:44;;;;;;;2.03;1.40;;;6.00;99.90;;;;;;20680838;28;20580;-75
2021/05/14 01:01:45;;;;;;;2.83;1.20;;;6.00;99.90;;;;;;20682389;28;20037;-75
2021/05/14 01:11:46;;;;;;;2.57;1.67;;;6.10;99.90;;;;;;20703369;28;20097;-75
2021/05/14 01:21:47;;;;;;;5.13;1.63;;;5.60;99.90;;;;;;20691623;28;20057;-75
2021/05/14 01:31:48;;;;;;;3.10;1.40;;;5.50;99.90;;;;;;20676195;28;20030;-75
2021/05/14 01:41:50;;;;;;;4.37;1.80;;;5.40;99.90;;;;;;20695369;28;20030;-77
2021/05/14 01:51:51;;;;;;;1.42;1.20;;;5.20;99.90;;;;;;20677366;28;20040;-74
2021/05/14 02:01:51;;;;;;;1.50;1.17;;;5.00;99.90;;;;;;20713416;28;20033;-77
2021/05/14 02:11:52;;;;;;;1.60;1.27;;;5.10;99.90;;;;;;20817093;28;20044;-77
2021/05/14 02:21:53;;;;;;;2.70;1.30;;;4.90;99.90;;;;;;20822539;28;20112;-77
2021/05/14 02:31:54;;;;;;;1.97;1.57;;;4.60;99.90;;;;;;20767603;28;20045;-77
2021/05/14 02:41:55;;;;;;;2.03;1.20;;;5.00;99.90;;;;;;20714388;28;20616;-77
2021/05/14 02:51:56;;;;;;;1.40;1.27;;;5.10;99.90;;;;;;20701490;28;20355;-78
2021/05/14 03:01:58;;;;;;;2.00;1.37;;;5.20;99.90;;;;;;20685571;28;20054;-78
2021/05/14 03:11:59;;;;;;;2.50;1.30;;;5.20;99.90;;;;;;20696617;28;20388;-77
2021/05/14 03:21:59;;;;;;;6.40;1.23;;;5.20;99.90;;;;;;20789647;28;20048;-78
2021/05/14 03:32:00;;;;;;;2.17;1.30;;;4.80;99.90;;;;;;20838757;28;20056;-77
2021/05/14 03:42:12;;;;;;;4.80;1.67;;;4.60;99.90;;;;;;20837019;28;20025;-77
2021/05/14 03:52:13;;;;;;;2.85;1.52;;;4.30;99.90;;;;;;20835631;28;20038;-77
2021/05/14 04:02:14;;;;;;;8.73;1.58;;;4.30;99.90;;;;;;20817090;28;20037;-77
2021/05/14 04:14:28;;;;;;;2.90;1.60;;;4.40;99.90;;;;;;20818916;28;20500;-77
2021/05/14 04:22:36;;;;;;;1.67;1.15;;;4.50;99.90;;;;;;20837084;28;20064;-77
2021/05/14 04:32:36;;;;;;;2.77;1.50;;;4.30;99.90;;;;;;20848745;28;20373;-77
2021/05/14 04:42:37;;;;;;;2.00;1.33;;;4.20;99.90;;;;;;20813193;28;20365;-77
2021/05/14 04:52:38;;;;;;;7.93;1.73;;;4.40;99.90;;;;;;20813244;28;20594;-77
2021/05/14 05:02:39;;;;;;;2.23;1.57;;;4.60;99.90;;;;;;20810158;22;20064;-78
2021/05/14 05:12:40;;;;;;;2.73;2.03;;;4.70;99.90;;;;;;20811113;28;20042;-78
2021/05/14 05:22:41;;;;;;;4.57;2.70;;;4.90;99.90;;;;;;20831913;28;20139;-78
2021/05/14 05:32:43;;;;;;;4.57;2.97;;;5.60;99.90;;;;;;20833331;28;20034;-78
2021/05/14 05:42:44;;;;;;;5.95;3.25;;;6.20;99.90;;;;;;20815042;28;20041;-78
2021/05/14 05:52:45;;;;;;;4.15;2.55;;;6.50;99.90;;;;;;20846298;28;20410;-78
2021/05/14 06:02:46;;;;;;;3.90;2.90;;;6.90;99.90;;;;;;20826702;28;20383;-78
2021/05/14 06:12:47;;;;;;;3.73;2.73;;;7.40;99.90;;;;;;20825052;28;20463;-80
2021/05/14 06:22:48;;;;;;;3.83;2.13;;;8.00;99.90;;;;;;20821930;28;20084;-80
2021/05/14 06:32:49;;;;;;;5.83;1.77;;;9.30;99.90;;;;;;20820572;28;20056;-80
2021/05/14 06:42:50;;;;;;;4.30;2.07;;;9.90;99.90;;;;;;20819718;28;20401;-81
2021/05/14 06:52:51;;;;;;;4.27;2.00;;;10.90;99.90;;;;;;20821091;28;20447;-80
2021/05/14 07:02:52;;;;;;;6.07;1.85;;;11.40;99.90;;;;;;20836161;28;20460;-81
2021/05/14 07:12:53;;;;;;;3.87;1.63;;;12.20;99.90;;;;;;20802761;28;20036;-81
2021/05/14 07:22:54;;;;;;;8.52;2.78;;;12.40;99.90;;;;;;20817425;28;20025;-80
2021/05/14 07:32:56;;;;;;;5.10;1.80;;;13.50;99.90;;;;;;20833697;28;20029;-82
2021/05/14 07:42:57;;;;;;;8.70;2.10;;;13.50;99.90;;;;;;20818396;28;20049;-80
2021/05/14 07:52:58;;;;;;;3.95;2.05;;;14.90;99.90;;;;;;20823722;28;20029;-82
2021/05/14 08:03:00;;;;;;;2.00;1.47;;;14.80;99.90;;;;;;20807889;28;20083;-81
2021/05/14 08:13:01;;;;;;;4.93;1.73;;;15.90;99.90;;;;;;20820687;28;20029;-81
2021/05/14 08:23:02;;;;;;;;;;;16.30;99.90;;;;;;20818910;28;20085;-83
2021/05/14 08:33:03;;;;;;;2.65;1.10;;;16.20;99.90;;;;;;20817991;28;19963;-81
2021/05/14 08:43:05;;;;;;;1.80;0.50;;;16.70;99.90;;;;;;20801215;28;20030;-82
2021/05/14 08:53:06;;;;;;;0.90;0.40;;;16.30;99.90;;;;;;20818645;28;20036;-81
2021/05/14 09:03:10;;;;;;;1.98;0.57;;;16.30;99.90;;;;;;20817564;28;20067;-80
2021/05/14 09:13:12;;;;;;;5.03;0.70;;;17.00;99.90;;;;;;20800313;28;20514;-81
2021/05/14 09:23:16;;;;;;;2.37;0.70;;;17.20;99.90;;;;;;20823905;28;20534;-80
2021/05/14 09:33:25;;;;;;;3.60;0.75;;;17.20;99.90;;;;;;20814139;28;20029;-82
2021/05/14 09:43:28;;;;;;;1.30;0.60;;;17.20;99.90;;;;;;20826253;28;20025;-81
2021/05/14 09:53:31;;;;;;;1.90;0.35;;;17.00;99.90;;;;;;20813297;28;20098;-81
2021/05/14 10:03:35;;;;;;;1.48;0.35;;;17.90;99.90;;;;;;20823235;28;20029;-81
2021/05/14 10:13:37;;;;;;;2.33;0.38;;;17.90;96.60;;;;;;20812939;28;20030;-82
2021/05/14 10:23:38;;;;;;;;;;;18.40;99.70;;;;;;20812084;28;20083;-80
2021/05/14 10:33:46;;;;;;;1.65;0.47;;;18.20;93.30;;;;;;20805978;28;19913;-83
2021/05/14 10:44:05;;;;;;;1.90;0.68;;;18.20;93.20;;;;;;20806865;28;20036;-81
2021/05/14 10:54:06;;;;;;;1.17;0.55;;;19.50;92.40;;;;;;20820833;28;20033;-80
2021/05/14 11:14:16;;;;;;;1.00;0.30;;;18.80;90.50;;;;;;20908195;22;20053;-76
2021/05/14 11:24:30;;;;;;;1.10;0.63;;;19.30;93.90;;;;;;20895637;28;20106;-76
2021/05/14 11:34:31;;;;;;;4.53;0.80;;;18.90;93.50;;;;;;20894749;28;20040;-77
2021/05/14 11:44:32;;;;;;;4.37;0.60;;;18.70;94.40;;;;;;20893999;28;20033;-77
2021/05/14 11:54:34;;;;;;;1.23;0.37;;;19.90;91.80;;;;;;20903383;28;20432;-77
2021/05/14 12:04:50;;;;;;;3.20;0.52;;;20.30;93.70;;;;;;20887859;28;20511;-77
2021/05/14 12:15:17;;;;;;;5.68;0.63;;;19.80;94.40;;;;;;20888941;28;20037;-76
2021/05/14 12:25:18;;;;;;;2.88;0.45;;;19.10;95.60;;;;;;20880267;28;20040;-76
2021/05/14 12:35:21;;;;;;;15.20;1.00;;;19.90;94.40;;;;;;20885453;28;20033;-76
2021/05/14 12:45:22;;;;;;;2.30;0.50;;;17.60;97.80;;;;;;20888756;28;20025;-76
2021/05/14 12:55:24;;;;;;;2.08;0.57;;;17.20;97.90;;;;;;20889245;28;20041;-76
2021/05/14 13:05:38;;;;;;;2.03;0.63;;;16.10;99.90;;;;;;20887526;28;20573;-75
2021/05/14 13:15:39;;;;;;;5.03;0.98;;;15.60;99.90;;;;;;20886874;28;20517;-77
2021/05/14 13:25:40;;;;;;;1.30;0.63;;;15.40;99.90;;;;;;20890308;28;20037;-76
2021/05/14 13:35:41;;;;;;;1.55;0.30;;;14.60;99.90;;;;;;20886723;28;20037;-76
2021/05/14 13:45:44;;;;;;;0.75;0.40;;;15.10;99.90;;;;;;20885651;28;20033;-77
2021/05/14 13:55:45;;;;;;;4.70;0.57;;;14.50;99.90;;;;;;20886347;28;20495;-76
2021/05/14 14:05:46;;;;;;;1.03;0.60;;;14.10;99.90;;;;;;20887674;28;20063;-78
2021/05/14 14:15:47;;;;;;;0.73;0.40;;;16.00;99.90;;;;;;20903301;28;20099;-79
2021/05/14 14:25:49;;;;;;;4.00;1.00;;;16.20;99.90;;;;;;20901380;28;20036;-77
2021/05/14 14:35:50;;;;;;;10.02;3.50;;;15.10;99.90;;;;;;20902010;28;20041;-77
2021/05/14 14:45:51;;;;;;;2.95;0.70;;;14.90;99.90;;;;;;20906714;28;20155;-77
2021/05/14 14:55:52;;;;;;;1.02;0.40;;;15.70;99.90;;;;;;20896748;28;20090;-77
2021/05/14 15:05:54;;;;;;;3.92;0.60;;;15.40;99.90;;;;;;20897286;28;20029;-76
2021/05/14 15:15:55;;;;;;;2.42;0.73;;;14.60;99.90;;;;;;20901139;28;20029;-76
2021/05/14 15:25:57;;;;;;;2.90;0.70;;;14.10;99.90;;;;;;20900282;28;20048;-77
2021/05/14 15:36:01;;;;;;;2.45;0.80;;;13.70;99.90;;;;;;20868718;28;20376;-76
2021/05/14 15:46:03;;;;;;;2.15;0.77;;;13.60;99.90;;;;;;20895562;28;20041;-76
2021/05/14 15:56:04;;;;;;;7.00;1.10;;;13.50;99.90;;;;;;20890712;28;20139;-75
2021/05/14 16:06:05;;;;;;;4.37;1.00;;;13.20;99.90;;;;;;20889056;28;20086;-77
2021/05/14 16:16:06;;;;;;;1.60;0.75;;;13.10;99.90;;;;;;20890589;28;20438;-76
2021/05/14 16:26:08;;;;;;;2.10;1.33;;;13.20;99.90;;;;;;20890239;28;20123;-75
2021/05/14 16:36:09;;;;;;;1.25;0.60;;;13.70;99.90;;;;;;20889693;28;20076;-76
2021/05/14 16:46:10;;;;;;;2.10;0.53;;;13.90;99.90;;;;;;20888319;28;20040;-76
2021/05/14 16:56:11;;;;;;;2.30;0.50;;;13.80;99.90;;;;;;20941768;28;20098;-76
2021/05/14 17:06:36;;;;;;;1.05;0.60;;;13.90;99.90;;;;;;20969013;22;20041;-77
2021/05/14 17:16:39;;;;;;;0.70;0.40;;;13.90;99.90;;;;;;20712999;28;20587;-77
2021/05/14 17:26:40;;;;;;;0.65;0.30;;;13.30;99.90;;;;;;20802812;28;20030;-78
2021/05/14 17:36:42;;;;;;;1.50;0.50;;;12.90;99.90;;;;;;20835541;28;20072;-77
2021/05/14 17:46:43;;;;;;;0.93;0.60;;;12.50;99.90;;;;;;20828032;28;20426;-76
2021/05/14 17:56:44;;;;;;;3.40;0.50;;;12.30;99.90;;;;;;20838734;28;20032;-77
2021/05/14 18:06:44;;;;;;;1.87;0.90;;;12.10;99.90;;;;;;20819463;28;20087;-77
2021/05/14 18:16:45;;;;;;;0.50;0.40;;;12.20;99.90;;;;;;20799871;28;20033;-77
2021/05/14 18:26:46;;;;;;;5.63;3.93;;;12.20;99.90;;;;;;20822976;28;20075;-77
2021/05/14 18:36:47;;;;;;;0.73;0.50;;;12.00;99.90;;;;;;20810402;28;20021;-77
2021/05/14 18:46:48;;;;;;;0.80;0.68;;;11.80;99.90;;;;;;20877261;28;20045;-81
2021/05/14 18:56:49;;;;;;;3.42;2.00;;;11.70;99.90;;;;;;20816055;28;20037;-79
2021/05/14 19:06:50;;;;;;;0.60;0.60;;;11.70;99.90;;;;;;20802621;28;20042;-80
2021/05/14 19:16:51;;;;;;;2.55;0.43;;;11.30;99.90;;;;;;20827809;28;20836;-79
2021/05/14 19:47:12;;;;;;;5.90;1.27;;;10.30;99.90;;;;;;20825931;28;20041;-79
2021/05/14 19:57:15;;;;;;;2.33;0.95;;;10.20;99.90;;;;;;20816499;28;20034;-79
2021/05/14 20:07:17;;;;;;;2.63;1.40;;;10.00;99.90;;;;;;20800754;28;20037;-79
2021/05/14 20:17:18;;;;;;;5.90;1.80;;;9.70;99.90;;;;;;20817929;28;20037;-77
2021/05/14 20:27:20;;;;;;;1.93;1.10;;;9.40;99.90;;;;;;20799387;28;20029;-80
2021/05/14 20:37:23;;;;;;;6.03;1.37;;;9.20;99.90;;;;;;20784426;28;20037;-81
2021/05/14 20:47:24;;;;;;;4.90;1.10;;;8.80;99.90;;;;;;20824624;28;20132;-78
2021/05/14 20:57:26;;;;;;;2.43;1.07;;;8.50;99.90;;;;;;20803366;28;20053;-79
2021/05/14 21:07:27;;;;;;;3.65;1.60;;;8.40;99.90;;;;;;20787859;28;20497;-79
2021/05/14 21:17:28;;;;;;;3.23;1.23;;;8.40;99.90;;;;;;20782942;28;20037;-82
2021/05/14 21:27:29;;;;;;;2.27;1.30;;;8.50;99.90;;;;;;20738134;28;20052;-78
2021/05/14 21:37:30;;;;;;;9.47;4.30;;;8.90;99.90;;;;;;20728337;28;20128;-78
2021/05/14 21:47:31;;;;;;;4.07;2.70;;;9.20;99.90;;;;;;20731907;28;20596;-78
2021/05/14 21:57:32;;;;;;;6.60;2.83;;;9.30;99.90;;;;;;20754448;28;20128;-80
2021/05/14 22:07:34;;;;;;;6.13;3.23;;;9.30;99.90;;;;;;20816026;28;20484;-80
2021/05/14 22:17:35;;;;;;;4.90;2.60;;;9.30;99.90;;;;;;20831398;28;20116;-80
2021/05/14 22:27:35;;;;;;;5.57;2.83;;;9.30;99.90;;;;;;20829068;28;20407;-79
2021/05/14 22:37:38;;;;;;;5.00;2.80;;;9.30;99.90;;;;;;20814793;28;20033;-79
2021/05/14 22:47:39;;;;;;;6.28;3.10;;;9.10;99.90;;;;;;20846266;28;20025;-79
2021/05/14 22:57:46;;;;;;;4.23;2.20;;;9.30;99.90;;;;;;20845432;28;20026;-79
2021/05/14 23:07:47;;;;;;;4.43;2.70;;;9.30;99.90;;;;;;20816439;28;20288;-79
2021/05/14 23:17:48;;;;;;;3.77;2.57;;;9.40;99.90;;;;;;20850030;28;20069;-79
2021/05/14 23:27:48;;;;;;;3.27;2.43;;;9.30;99.90;;;;;;20848801;28;20432;-77
2021/05/14 23:37:49;;;;;;;4.70;2.43;;;9.20;99.90;;;;;;20858053;28;20037;-79
2021/05/14 23:47:50;;;;;;;4.70;2.07;;;8.90;99.90;;;;;;20874228;28;20045;-80
2021/05/14 23:57:51;;;;;;;4.20;2.20;;;8.40;99.90;;;;;;20864517;28;20057;-79
